createdAt,value
2018-03-24T00:00:59.886Z,86.16
2018-03-24T00:01:59.978Z,85.87
2018-03-24T00:03:00.068Z,86.07
2018-03-24T00:04:00.159Z,86.07
2018-03-24T00:05:00.254Z,85.78
2018-03-24T00:06:00.349Z,85.97
2018-03-24T00:07:00.443Z,86.07
2018-03-24T00:08:00.535Z,85.78
2018-03-24T00:09:00.621Z,85.87
2018-03-24T00:10:00.712Z,85.87
2018-03-24T00:11:00.807Z,85.87
2018-03-24T00:12:00.901Z,85.59
2018-03-24T00:13:00.996Z,85.78
2018-03-24T00:14:01.087Z,85.49
2018-03-24T00:15:01.186Z,86.07
2018-03-24T00:16:01.269Z,85.87
2018-03-24T00:17:01.360Z,85.97
2018-03-24T00:18:01.456Z,86.07
2018-03-24T00:19:01.558Z,85.97
2018-03-24T00:20:01.647Z,86.07
2018-03-24T00:21:01.732Z,86.44
2018-03-24T00:22:01.822Z,86.25
2018-03-24T00:23:01.914Z,85.87
2018-03-24T00:24:02.021Z,85.68
2018-03-24T00:25:02.115Z,85.78
2018-03-24T00:26:02.206Z,85.78
2018-03-24T00:27:02.298Z,85.97
2018-03-24T00:28:02.391Z,86.25
2018-03-24T00:29:02.482Z,86.25
2018-03-24T00:30:02.578Z,86.44
2018-03-24T00:31:02.667Z,86.59
2018-03-24T00:32:02.759Z,86.72
2018-03-24T00:33:02.848Z,86.54
2018-03-24T00:34:02.943Z,86.91
2018-03-24T00:35:03.032Z,86.54
2018-03-24T00:36:03.147Z,86.11
2018-03-24T00:37:03.215Z,86.68
2018-03-24T00:38:03.308Z,86.97
2018-03-24T00:39:03.395Z,87.16
2018-03-24T00:40:03.487Z,86.97
2018-03-24T00:41:03.580Z,87.25
2018-03-24T00:42:03.667Z,87.20
2018-03-24T00:43:03.759Z,87.11
2018-03-24T00:44:03.850Z,86.91
2018-03-24T00:45:03.940Z,87.11
2018-03-24T00:46:04.029Z,86.68
2018-03-24T00:47:04.121Z,86.40
2018-03-24T00:48:04.221Z,86.63
2018-03-24T00:49:04.312Z,86.59
2018-03-24T00:50:04.406Z,86.44
2018-03-24T00:51:04.496Z,86.72
2018-03-24T00:52:04.590Z,86.44
2018-03-24T00:53:04.681Z,85.78
2018-03-24T00:54:04.777Z,85.97
2018-03-24T00:55:04.865Z,85.83
2018-03-24T00:56:04.973Z,85.78
2018-03-24T00:57:05.063Z,86.02
2018-03-24T00:58:05.154Z,86.30
2018-03-24T00:59:05.243Z,86.40
2018-03-24T01:00:05.336Z,86.25
2018-03-24T01:01:05.425Z,85.83
2018-03-24T01:02:05.520Z,86.30
2018-03-24T01:03:05.609Z,86.30
2018-03-24T01:04:05.696Z,86.59
2018-03-24T01:05:05.786Z,86.59
2018-03-24T01:06:05.881Z,85.83
2018-03-24T01:07:05.973Z,86.78
2018-03-24T01:08:06.064Z,86.40
2018-03-24T01:09:06.155Z,86.40
2018-03-24T01:10:06.252Z,86.30
2018-03-24T01:11:06.341Z,86.30
2018-03-24T01:12:06.428Z,86.11
2018-03-24T01:13:06.525Z,86.49
2018-03-24T01:14:06.638Z,85.78
2018-03-24T01:15:06.704Z,86.21
2018-03-24T01:16:06.799Z,86.11
2018-03-24T01:17:06.886Z,86.49
2018-03-24T01:18:06.978Z,86.44
2018-03-24T01:19:07.069Z,85.83
2018-03-24T01:20:07.163Z,85.93
2018-03-24T01:21:07.253Z,85.74
2018-03-24T01:22:07.338Z,85.83
2018-03-24T01:23:07.432Z,86.49
2018-03-24T01:24:07.520Z,86.59
2018-03-24T01:25:07.609Z,86.40
2018-03-24T01:26:07.699Z,86.11
2018-03-24T01:27:07.801Z,85.68
2018-03-24T01:28:07.891Z,85.74
2018-03-24T01:29:07.985Z,85.97
2018-03-24T01:30:08.074Z,86.02
2018-03-24T01:31:08.165Z,85.97
2018-03-24T01:32:08.255Z,85.83
2018-03-24T01:33:08.342Z,86.59
2018-03-24T01:34:08.434Z,86.40
2018-03-24T01:35:08.524Z,86.78
2018-03-24T01:36:08.617Z,86.30
2018-03-24T01:37:08.706Z,86.59
2018-03-24T01:38:08.800Z,86.35
2018-03-24T01:39:08.890Z,85.97
2018-03-24T01:40:08.982Z,85.83
2018-03-24T01:41:09.064Z,85.74
2018-03-24T01:42:09.152Z,85.87
2018-03-24T01:43:09.244Z,85.83
2018-03-24T01:44:09.335Z,86.11
2018-03-24T01:45:09.427Z,85.74
2018-03-24T01:46:09.520Z,85.74
2018-03-24T01:47:09.609Z,85.68
2018-03-24T01:48:09.701Z,85.93
2018-03-24T01:49:09.790Z,85.87
2018-03-24T01:50:09.890Z,85.78
2018-03-24T01:51:09.976Z,85.97
2018-03-24T01:52:10.070Z,85.93
2018-03-24T01:53:10.164Z,85.78
2018-03-24T01:54:10.252Z,85.97
2018-03-24T01:55:10.346Z,85.74
2018-03-24T01:56:10.434Z,85.93
2018-03-24T01:57:10.531Z,85.97
2018-03-24T01:58:10.623Z,85.97
2018-03-24T01:59:10.712Z,85.97
2018-03-24T02:00:10.799Z,85.87
2018-03-24T02:01:10.892Z,85.93
2018-03-24T02:02:10.981Z,85.97
2018-03-24T02:03:11.071Z,85.83
2018-03-24T02:04:11.170Z,85.55
2018-03-24T02:05:11.255Z,85.64
2018-03-24T02:06:11.348Z,86.07
2018-03-24T02:07:11.437Z,86.07
2018-03-24T02:08:11.528Z,85.78
2018-03-24T02:09:11.621Z,85.87
2018-03-24T02:10:11.715Z,85.74
2018-03-24T02:11:11.804Z,85.68
2018-03-24T02:12:11.895Z,85.78
2018-03-24T02:13:12.012Z,85.74
2018-03-24T02:14:12.102Z,86.16
2018-03-24T02:15:12.191Z,85.93
2018-03-24T02:16:12.284Z,85.78
2018-03-24T02:17:12.381Z,85.97
2018-03-24T02:18:12.480Z,85.87
2018-03-24T02:19:12.564Z,85.87
2018-03-24T02:20:12.658Z,85.74
2018-03-24T02:21:12.759Z,85.87
2018-03-24T02:22:12.855Z,85.64
2018-03-24T02:23:12.958Z,85.68
2018-03-24T02:24:13.050Z,85.78
2018-03-24T02:25:13.197Z,86.07
2018-03-24T02:26:13.232Z,85.87
2018-03-24T02:27:13.322Z,86.07
2018-03-24T02:28:13.406Z,86.11
2018-03-24T02:29:13.509Z,86.02
2018-03-24T02:30:13.600Z,86.07
2018-03-24T02:31:13.691Z,86.21
2018-03-24T02:32:13.781Z,85.83
2018-03-24T02:33:13.872Z,85.74
2018-03-24T02:34:13.960Z,85.83
2018-03-24T02:35:14.054Z,86.11
2018-03-24T02:36:14.145Z,85.93
2018-03-24T02:37:14.238Z,85.55
2018-03-24T02:38:14.329Z,85.93
2018-03-24T02:39:14.421Z,86.59
2018-03-24T02:40:14.509Z,86.78
2018-03-24T02:41:14.596Z,86.40
2018-03-24T02:42:14.686Z,86.11
2018-03-24T02:43:14.769Z,86.49
2018-03-24T02:44:14.858Z,86.40
2018-03-24T02:45:14.954Z,86.40
2018-03-24T02:46:15.048Z,86.49
2018-03-24T02:47:15.130Z,86.40
2018-03-24T02:48:15.227Z,85.83
2018-03-24T02:49:15.318Z,86.78
2018-03-24T02:50:15.406Z,86.87
2018-03-24T02:51:15.497Z,86.68
2018-03-24T02:52:15.588Z,86.59
2018-03-24T02:53:15.681Z,86.59
2018-03-24T02:54:15.772Z,86.40
2018-03-24T02:55:15.873Z,86.68
2018-03-24T02:56:15.962Z,86.49
2018-03-24T02:57:16.054Z,86.68
2018-03-24T02:58:16.148Z,87.06
2018-03-24T02:59:16.244Z,86.59
2018-03-24T03:00:16.337Z,87.16
2018-03-24T03:01:16.421Z,86.97
2018-03-24T03:02:16.511Z,86.97
2018-03-24T03:03:16.601Z,87.35
2018-03-24T03:04:16.691Z,87.06
2018-03-24T03:05:16.782Z,87.16
2018-03-24T03:06:16.875Z,86.97
2018-03-24T03:07:16.970Z,87.16
2018-03-24T03:08:17.055Z,87.25
2018-03-24T03:09:17.146Z,87.54
2018-03-24T03:10:17.236Z,87.16
2018-03-24T03:11:17.328Z,87.16
2018-03-24T03:12:17.422Z,87.45
2018-03-24T03:13:17.513Z,87.25
2018-03-24T03:14:17.603Z,86.97
2018-03-24T03:15:17.691Z,86.87
2018-03-24T03:16:17.784Z,86.78
2018-03-24T03:17:17.876Z,86.78
2018-03-24T03:18:17.969Z,86.59
2018-03-24T03:19:18.053Z,87.06
2018-03-24T03:20:18.140Z,87.25
2018-03-24T03:21:18.237Z,87.35
2018-03-24T03:22:18.323Z,87.25
2018-03-24T03:23:18.418Z,87.06
2018-03-24T03:24:18.509Z,87.16
2018-03-24T03:25:18.597Z,87.25
2018-03-24T03:26:18.689Z,87.82
2018-03-24T03:27:18.780Z,87.54
2018-03-24T03:28:18.872Z,87.63
2018-03-24T03:29:18.965Z,87.63
2018-03-24T03:30:19.057Z,87.45
2018-03-24T03:31:19.148Z,87.73
2018-03-24T03:32:19.238Z,87.54
2018-03-24T03:33:19.334Z,87.63
2018-03-24T03:34:19.425Z,87.63
2018-03-24T03:35:19.514Z,87.54
2018-03-24T03:36:19.602Z,87.73
2018-03-24T03:37:19.695Z,87.73
2018-03-24T03:38:19.779Z,87.73
2018-03-24T03:39:19.869Z,87.35
2018-03-24T03:40:19.959Z,86.97
2018-03-24T03:41:20.044Z,87.25
2018-03-24T03:42:20.138Z,87.35
2018-03-24T03:43:20.228Z,87.82
2018-03-24T03:44:20.325Z,87.73
2018-03-24T03:45:20.412Z,87.45
2018-03-24T03:46:20.505Z,87.25
2018-03-24T03:47:20.595Z,87.73
2018-03-24T03:48:20.686Z,87.54
2018-03-24T03:49:20.778Z,87.54
2018-03-24T03:50:20.874Z,87.45
2018-03-24T03:51:20.966Z,87.54
2018-03-24T03:52:21.052Z,87.45
2018-03-24T03:53:21.144Z,87.45
2018-03-24T03:54:21.235Z,87.54
2018-03-24T03:55:21.325Z,87.54
2018-03-24T03:56:21.418Z,87.45
2018-03-24T03:57:21.506Z,87.45
2018-03-24T03:58:21.597Z,87.45
2018-03-24T03:59:21.689Z,87.45
2018-03-24T04:00:21.794Z,87.63
2018-03-24T04:01:21.856Z,87.63
2018-03-24T04:02:21.945Z,87.92
2018-03-24T04:03:22.026Z,87.45
2018-03-24T04:04:22.118Z,87.25
2018-03-24T04:05:22.211Z,87.25
2018-03-24T04:06:22.300Z,87.06
2018-03-24T04:07:22.393Z,87.25
2018-03-24T04:08:22.484Z,86.97
2018-03-24T04:09:22.576Z,87.06
2018-03-24T04:10:22.665Z,86.87
2018-03-24T04:11:22.757Z,86.97
2018-03-24T04:12:22.851Z,86.97
2018-03-24T04:13:22.935Z,87.06
2018-03-24T04:14:23.027Z,86.87
2018-03-24T04:15:23.116Z,86.97
2018-03-24T04:16:23.209Z,86.97
2018-03-24T04:17:23.300Z,86.59
2018-03-24T04:18:23.388Z,86.78
2018-03-24T04:19:23.504Z,86.78
2018-03-24T04:20:23.573Z,86.97
2018-03-24T04:21:23.667Z,86.68
2018-03-24T04:22:23.748Z,87.25
2018-03-24T04:23:23.848Z,87.92
2018-03-24T04:24:23.937Z,87.54
2018-03-24T04:25:24.031Z,87.82
2018-03-24T04:26:24.126Z,87.63
2018-03-24T04:27:24.215Z,87.92
2018-03-24T04:28:24.325Z,88.01
2018-03-24T04:29:24.420Z,87.82
2018-03-24T04:30:24.509Z,87.35
2018-03-24T04:31:24.604Z,87.73
2018-03-24T04:32:24.696Z,87.54
2018-03-24T04:33:24.788Z,87.54
2018-03-24T04:34:24.876Z,87.25
2018-03-24T04:35:24.964Z,87.35
2018-03-24T04:36:25.051Z,87.45
2018-03-24T04:37:25.146Z,87.25
2018-03-24T04:38:25.234Z,87.35
2018-03-24T04:39:25.324Z,87.16
2018-03-24T04:40:25.415Z,87.25
2018-03-24T04:41:25.514Z,87.25
2018-03-24T04:42:25.602Z,87.45
2018-03-24T04:43:25.692Z,87.35
2018-03-24T04:44:25.786Z,87.16
2018-03-24T04:45:25.873Z,87.35
2018-03-24T04:46:25.965Z,87.25
2018-03-24T04:47:26.055Z,87.25
2018-03-24T04:48:26.145Z,87.16
2018-03-24T04:49:26.236Z,86.97
2018-03-24T04:50:26.330Z,87.25
2018-03-24T04:51:26.419Z,87.16
2018-03-24T04:52:26.507Z,87.92
2018-03-24T04:53:26.600Z,87.45
2018-03-24T04:54:26.688Z,87.54
2018-03-24T04:55:26.775Z,87.63
2018-03-24T04:56:26.861Z,87.82
2018-03-24T04:57:26.949Z,87.82
2018-03-24T04:58:27.037Z,87.82
2018-03-24T04:59:27.126Z,87.92
2018-03-24T05:00:27.207Z,87.73
2018-03-24T05:01:27.294Z,87.73
2018-03-24T05:02:27.387Z,87.73
2018-03-24T05:03:27.480Z,87.54
2018-03-24T05:04:27.571Z,87.06
2018-03-24T05:05:27.666Z,87.16
2018-03-24T05:06:27.756Z,87.25
2018-03-24T05:07:27.848Z,87.35
2018-03-24T05:08:27.945Z,87.16
2018-03-24T05:09:28.036Z,86.68
2018-03-24T05:10:28.127Z,87.16
2018-03-24T05:11:28.217Z,87.25
2018-03-24T05:12:28.308Z,87.16
2018-03-24T05:13:28.398Z,87.25
2018-03-24T05:14:28.493Z,87.73
2018-03-24T05:15:28.585Z,87.73
2018-03-24T05:16:28.673Z,87.82
2018-03-24T05:17:28.761Z,87.82
2018-03-24T05:18:28.851Z,87.54
2018-03-24T05:19:28.934Z,87.25
2018-03-24T05:20:29.021Z,87.54
2018-03-24T05:21:29.110Z,87.54
2018-03-24T05:22:29.210Z,87.92
2018-03-24T05:23:29.296Z,87.73
2018-03-24T05:24:29.387Z,87.54
2018-03-24T05:25:29.480Z,87.35
2018-03-24T05:26:29.578Z,87.63
2018-03-24T05:27:29.664Z,87.06
2018-03-24T05:28:29.757Z,87.35
2018-03-24T05:29:29.847Z,87.06
2018-03-24T05:30:29.941Z,87.54
2018-03-24T05:31:30.034Z,87.16
2018-03-24T05:32:30.123Z,87.25
2018-03-24T05:33:30.216Z,87.45
2018-03-24T05:34:30.305Z,87.35
2018-03-24T05:35:30.395Z,87.35
2018-03-24T05:36:30.485Z,87.25
2018-03-24T05:37:30.578Z,87.35
2018-03-24T05:38:30.662Z,87.16
2018-03-24T05:39:30.748Z,87.06
2018-03-24T05:40:30.840Z,87.16
2018-03-24T05:41:30.930Z,87.35
2018-03-24T05:42:31.021Z,87.06
2018-03-24T05:43:31.108Z,87.06
2018-03-24T05:44:31.204Z,86.97
2018-03-24T05:45:31.295Z,87.16
2018-03-24T05:46:31.388Z,87.35
2018-03-24T05:47:31.481Z,87.16
2018-03-24T05:48:31.638Z,87.06
2018-03-24T05:49:31.670Z,87.25
2018-03-24T05:50:31.762Z,87.54
2018-03-24T05:51:31.852Z,87.54
2018-03-24T05:52:31.945Z,87.73
2018-03-24T05:53:32.039Z,87.49
2018-03-24T05:54:32.129Z,88.35
2018-03-24T05:55:32.221Z,88.35
2018-03-24T05:56:32.311Z,89.48
2018-03-24T05:57:32.422Z,89.11
2018-03-24T05:58:32.492Z,89.15
2018-03-24T05:59:32.582Z,89.25
2018-03-24T06:00:32.676Z,88.29
2018-03-24T06:01:32.765Z,88.39
2018-03-24T06:02:32.858Z,88.58
2018-03-24T06:03:32.948Z,88.39
2018-03-24T06:04:33.039Z,88.10
2018-03-24T06:05:33.123Z,88.01
2018-03-24T06:06:33.209Z,87.82
2018-03-24T06:07:33.303Z,87.54
2018-03-24T06:08:33.391Z,87.45
2018-03-24T06:09:33.487Z,87.54
2018-03-24T06:10:33.634Z,87.92
2018-03-24T06:11:33.655Z,87.35
2018-03-24T06:12:33.745Z,87.35
2018-03-24T06:13:33.840Z,87.25
2018-03-24T06:14:33.930Z,86.97
2018-03-24T06:15:34.021Z,86.87
2018-03-24T06:16:34.112Z,86.87
2018-03-24T06:17:34.203Z,86.78
2018-03-24T06:18:34.297Z,86.59
2018-03-24T06:19:34.399Z,86.44
2018-03-24T06:20:34.489Z,86.02
2018-03-24T06:21:34.578Z,86.16
2018-03-24T06:22:34.668Z,85.78
2018-03-24T06:23:34.765Z,86.07
2018-03-24T06:24:34.853Z,86.11
2018-03-24T06:25:34.947Z,85.78
2018-03-24T06:26:35.035Z,85.64
2018-03-24T06:27:35.140Z,85.59
2018-03-24T06:28:35.222Z,85.49
2018-03-24T06:29:35.315Z,85.49
2018-03-24T06:30:35.405Z,85.40
2018-03-24T06:31:35.498Z,86.07
2018-03-24T06:32:35.595Z,86.07
2018-03-24T06:33:35.679Z,85.87
2018-03-24T06:34:35.769Z,85.68
2018-03-24T06:35:35.846Z,85.59
2018-03-24T06:36:35.943Z,85.59
2018-03-24T06:37:36.035Z,85.21
2018-03-24T06:38:36.126Z,85.49
2018-03-24T06:39:36.219Z,85.30
2018-03-24T06:40:36.315Z,85.21
2018-03-24T06:41:36.416Z,85.40
2018-03-24T06:42:36.507Z,84.74
2018-03-24T06:43:36.598Z,84.92
2018-03-24T06:44:36.692Z,84.92
2018-03-24T06:45:36.786Z,84.92
2018-03-24T06:46:36.884Z,85.02
2018-03-24T06:47:36.974Z,84.36
2018-03-24T06:48:37.058Z,84.68
2018-03-24T06:49:37.158Z,84.59
2018-03-24T06:50:37.244Z,84.68
2018-03-24T06:51:37.337Z,84.49
2018-03-24T06:52:37.429Z,84.11
2018-03-24T06:53:37.520Z,84.30
2018-03-24T06:54:37.614Z,83.83
2018-03-24T06:55:37.705Z,83.92
2018-03-24T06:56:37.796Z,83.92
2018-03-24T06:57:37.888Z,84.11
2018-03-24T06:58:37.978Z,84.11
2018-03-24T06:59:38.080Z,83.54
2018-03-24T07:00:38.197Z,83.73
2018-03-24T07:01:38.264Z,83.73
2018-03-24T07:02:38.356Z,83.64
2018-03-24T07:03:38.446Z,82.97
2018-03-24T07:04:38.541Z,82.97
2018-03-24T07:05:38.638Z,83.07
2018-03-24T07:06:38.730Z,82.40
2018-03-24T07:07:38.820Z,82.45
2018-03-24T07:08:38.910Z,82.31
2018-03-24T07:09:39.002Z,82.35
2018-03-24T07:10:39.097Z,82.07
2018-03-24T07:11:39.186Z,81.97
2018-03-24T07:12:39.279Z,82.16
2018-03-24T07:13:39.367Z,81.68
2018-03-24T07:14:39.460Z,82.07
2018-03-24T07:15:39.555Z,82.07
2018-03-24T07:16:39.648Z,82.07
2018-03-24T07:17:39.742Z,81.59
2018-03-24T07:18:39.832Z,81.49
2018-03-24T07:19:39.928Z,81.40
2018-03-24T07:20:40.019Z,81.78
2018-03-24T07:21:40.126Z,81.12
2018-03-24T07:22:40.218Z,81.54
2018-03-24T07:23:40.311Z,81.25
2018-03-24T07:24:40.403Z,80.87
2018-03-24T07:25:40.496Z,81.25
2018-03-24T07:26:40.588Z,80.49
2018-03-24T07:27:40.680Z,80.96
2018-03-24T07:28:40.777Z,80.40
2018-03-24T07:29:40.871Z,80.40
2018-03-24T07:30:40.966Z,80.11
2018-03-24T07:31:41.057Z,80.11
2018-03-24T07:32:41.148Z,79.96
2018-03-24T07:33:41.232Z,79.54
2018-03-24T07:34:41.336Z,79.58
2018-03-24T07:35:41.420Z,79.11
2018-03-24T07:36:41.510Z,78.72
2018-03-24T07:37:41.605Z,78.53
2018-03-24T07:38:41.698Z,78.25
2018-03-24T07:39:41.805Z,78.06
2018-03-24T07:40:41.895Z,77.97
2018-03-24T07:41:41.990Z,77.58
2018-03-24T07:42:42.084Z,77.53
2018-03-24T07:43:42.178Z,77.53
2018-03-24T07:44:42.273Z,77.15
2018-03-24T07:45:42.372Z,76.39
2018-03-24T07:46:42.451Z,76.01
2018-03-24T07:47:42.555Z,76.48
2018-03-24T07:48:42.649Z,76.10
2018-03-24T07:49:42.745Z,76.29
2018-03-24T07:50:42.840Z,76.29
2018-03-24T07:51:42.934Z,76.29
2018-03-24T07:52:43.035Z,76.10
2018-03-24T07:53:43.144Z,75.24
2018-03-24T07:54:43.222Z,75.43
2018-03-24T07:55:43.316Z,75.15
2018-03-24T07:56:43.409Z,75.43
2018-03-24T07:57:43.501Z,74.87
2018-03-24T07:58:43.599Z,74.77
2018-03-24T07:59:43.693Z,74.87
2018-03-24T08:00:43.791Z,74.71
2018-03-24T08:01:43.887Z,74.20
2018-03-24T08:02:43.976Z,73.82
2018-03-24T08:03:44.071Z,73.06
2018-03-24T08:04:44.163Z,73.63
2018-03-24T08:05:44.258Z,74.20
2018-03-24T08:06:44.350Z,74.39
2018-03-24T08:07:44.443Z,74.10
2018-03-24T08:08:44.538Z,73.82
2018-03-24T08:09:44.632Z,73.85
2018-03-24T08:10:44.724Z,73.85
2018-03-24T08:11:44.821Z,73.57
2018-03-24T08:12:44.918Z,73.00
2018-03-24T08:13:45.009Z,72.90
2018-03-24T08:14:45.108Z,72.62
2018-03-24T08:15:45.207Z,72.05
2018-03-24T08:16:45.340Z,72.05
2018-03-24T08:17:45.392Z,72.14
2018-03-24T08:18:45.489Z,70.33
2018-03-24T08:19:45.612Z,70.52
2018-03-24T08:20:45.707Z,70.81
2018-03-24T08:21:45.801Z,71.91
2018-03-24T08:22:45.896Z,72.01
2018-03-24T08:23:45.985Z,71.82
2018-03-24T08:24:46.078Z,72.96
2018-03-24T08:25:46.170Z,72.96
2018-03-24T08:26:46.268Z,72.62
2018-03-24T08:27:46.361Z,71.95
2018-03-24T08:28:46.460Z,71.86
2018-03-24T08:29:46.603Z,71.86
2018-03-24T08:30:46.646Z,71.76
2018-03-24T08:31:46.790Z,72.42
2018-03-24T08:32:46.893Z,71.00
2018-03-24T08:33:46.999Z,71.00
2018-03-24T08:34:47.089Z,71.28
2018-03-24T08:35:47.181Z,70.81
2018-03-24T08:36:47.275Z,70.52
2018-03-24T08:37:47.376Z,69.67
2018-03-24T08:38:47.467Z,69.89
2018-03-24T08:39:47.561Z,69.67
2018-03-24T08:40:47.659Z,70.33
2018-03-24T08:41:47.757Z,70.90
2018-03-24T08:42:47.854Z,71.28
2018-03-24T08:43:47.942Z,70.56
2018-03-24T08:44:48.036Z,70.18
2018-03-24T08:45:48.133Z,69.79
2018-03-24T08:46:48.224Z,69.60
2018-03-24T08:47:48.328Z,69.51
2018-03-24T08:48:48.406Z,69.04
2018-03-24T08:52:20.557Z,68.27
2018-03-24T08:53:20.651Z,67.16
2018-03-24T08:54:20.746Z,65.26
2018-03-24T08:55:20.842Z,64.31
2018-03-24T08:56:20.935Z,63.64
2018-03-24T08:57:21.031Z,62.49
2018-03-24T08:58:21.130Z,61.73
2018-03-24T08:59:21.227Z,61.73
2018-03-24T09:00:21.323Z,61.64
2018-03-24T09:01:21.418Z,61.93
2018-03-24T09:02:21.514Z,62.59
2018-03-24T09:03:21.619Z,62.78
2018-03-24T09:04:21.722Z,62.78
2018-03-24T09:05:21.810Z,62.02
2018-03-24T09:06:21.902Z,62.59
2018-03-24T09:07:22.001Z,62.88
2018-03-24T09:08:22.091Z,62.97
2018-03-24T09:09:22.189Z,63.07
2018-03-24T09:10:22.281Z,61.54
2018-03-24T09:11:22.377Z,61.16
2018-03-24T09:12:22.469Z,61.35
2018-03-24T09:13:22.562Z,61.29
2018-03-24T09:14:22.658Z,62.62
2018-03-24T09:15:22.754Z,61.76
2018-03-24T09:16:22.848Z,61.48
2018-03-24T09:17:22.991Z,60.81
2018-03-24T09:18:23.043Z,61.07
2018-03-24T09:19:23.140Z,61.64
2018-03-24T09:20:23.230Z,62.85
2018-03-24T09:21:23.326Z,64.84
2018-03-24T09:22:23.420Z,65.29
2018-03-24T09:23:23.512Z,65.89
2018-03-24T09:24:23.613Z,65.99
2018-03-24T09:25:23.706Z,65.42
2018-03-24T09:26:23.801Z,66.43
2018-03-24T09:27:23.890Z,66.33
2018-03-24T09:28:23.994Z,67.10
2018-03-24T09:29:24.086Z,67.47
2018-03-24T09:30:24.179Z,67.10
2018-03-24T09:31:24.268Z,63.76
2018-03-24T09:32:24.372Z,61.61
2018-03-24T09:33:24.459Z,60.37
2018-03-24T09:34:24.557Z,60.30
2018-03-24T09:35:24.645Z,59.26
2018-03-24T09:36:24.773Z,57.92
2018-03-24T09:37:24.861Z,56.68
2018-03-24T09:38:24.958Z,55.73
2018-03-24T09:39:25.053Z,54.24
2018-03-24T09:40:25.148Z,53.95
2018-03-24T09:41:25.242Z,52.61
2018-03-24T09:42:25.336Z,51.76
2018-03-24T09:43:25.433Z,50.90
2018-03-24T09:44:25.527Z,51.85
2018-03-24T09:45:25.628Z,51.47
2018-03-24T09:46:25.713Z,50.99
2018-03-24T09:47:25.815Z,50.83
2018-03-24T09:48:25.904Z,51.28
2018-03-24T09:49:26.002Z,52.14
2018-03-24T09:50:26.103Z,52.33
2018-03-24T09:51:26.188Z,52.23
2018-03-24T09:52:26.283Z,52.33
2018-03-24T09:53:26.373Z,52.16
2018-03-24T09:54:26.462Z,51.97
2018-03-24T09:55:26.564Z,51.88
2018-03-24T09:56:26.661Z,52.55
2018-03-24T09:57:26.755Z,52.45
2018-03-24T09:58:26.846Z,52.83
2018-03-24T09:59:26.942Z,50.26
2018-03-24T10:00:27.036Z,49.02
2018-03-24T10:01:27.129Z,47.87
2018-03-24T10:02:27.226Z,47.49
2018-03-24T10:03:27.325Z,47.78
2018-03-24T10:04:27.422Z,47.97
2018-03-24T10:05:27.515Z,48.07
2018-03-24T10:06:27.608Z,48.16
2018-03-24T10:07:27.704Z,48.25
2018-03-24T10:08:27.799Z,49.11
2018-03-24T10:09:27.907Z,48.07
2018-03-24T10:10:28.003Z,47.87
2018-03-24T10:11:28.097Z,47.85
2018-03-24T10:12:28.192Z,49.11
2018-03-24T10:13:28.292Z,50.35
2018-03-24T10:14:28.384Z,49.59
2018-03-24T10:15:28.475Z,49.78
2018-03-24T10:16:28.579Z,49.11
2018-03-24T10:17:28.683Z,49.11
2018-03-24T10:18:28.777Z,50.07
2018-03-24T10:19:28.874Z,50.90
2018-03-24T10:20:28.967Z,51.76
2018-03-24T10:21:29.064Z,51.95
2018-03-24T10:22:29.196Z,52.14
2018-03-24T10:23:29.254Z,52.04
2018-03-24T10:24:29.348Z,50.80
2018-03-24T10:25:29.439Z,50.23
2018-03-24T10:26:29.537Z,50.71
2018-03-24T10:27:29.633Z,51.95
2018-03-24T10:28:29.730Z,51.18
2018-03-24T10:29:29.823Z,50.90
2018-03-24T10:30:29.918Z,51.68
2018-03-24T10:31:30.013Z,50.73
2018-03-24T10:32:30.110Z,50.35
2018-03-24T10:33:30.205Z,50.73
2018-03-24T10:34:30.303Z,50.26
2018-03-24T10:35:30.423Z,50.26
2018-03-24T10:36:30.489Z,50.26
2018-03-24T10:37:30.580Z,50.83
2018-03-24T10:38:30.674Z,51.12
2018-03-24T10:39:30.773Z,50.63
2018-03-24T10:40:30.885Z,50.54
2018-03-24T10:41:31.017Z,50.45
2018-03-24T10:42:31.073Z,50.35
2018-03-24T10:43:31.169Z,49.30
2018-03-24T10:44:31.266Z,48.73
2018-03-24T10:45:31.361Z,49.21
2018-03-24T10:46:31.458Z,49.11
2018-03-24T10:47:31.553Z,48.16
2018-03-24T10:48:31.647Z,47.97
2018-03-24T10:49:31.744Z,48.92
2018-03-24T10:50:31.845Z,49.40
2018-03-24T10:51:31.936Z,50.45
2018-03-24T10:52:32.033Z,50.28
2018-03-24T10:53:32.129Z,49.62
2018-03-24T10:54:32.225Z,50.38
2018-03-24T10:55:32.319Z,50.38
2018-03-24T10:56:32.412Z,50.38
2018-03-24T10:57:32.505Z,48.85
2018-03-24T10:58:32.601Z,49.04
2018-03-24T10:59:32.697Z,49.13
2018-03-24T11:00:32.796Z,48.37
2018-03-24T11:01:32.888Z,48.66
2018-03-24T11:02:33.000Z,50.38
2018-03-24T11:03:33.095Z,48.75
2018-03-24T11:04:33.194Z,47.99
2018-03-24T11:05:33.292Z,47.71
2018-03-24T11:06:33.389Z,47.71
2018-03-24T11:07:33.483Z,47.99
2018-03-24T11:08:33.579Z,47.68
2018-03-24T11:09:33.676Z,47.99
2018-03-24T11:10:33.771Z,47.99
2018-03-24T11:11:33.865Z,48.28
2018-03-24T11:12:33.954Z,47.99
2018-03-24T11:13:34.055Z,47.80
2018-03-24T11:14:34.149Z,48.28
2018-03-24T11:15:34.236Z,49.04
2018-03-24T11:16:34.335Z,48.37
2018-03-24T11:17:34.432Z,49.71
2018-03-24T11:18:34.529Z,50.47
2018-03-24T11:19:34.627Z,50.47
2018-03-24T11:20:34.722Z,47.80
2018-03-24T11:21:34.816Z,48.94
2018-03-24T11:22:34.929Z,48.08
2018-03-24T11:23:35.024Z,47.23
2018-03-24T11:24:35.121Z,48.18
2018-03-24T11:25:35.219Z,48.85
2018-03-24T11:26:35.338Z,47.99
2018-03-24T11:27:35.414Z,47.61
2018-03-24T11:28:35.497Z,47.89
2018-03-24T11:29:35.597Z,48.57
2018-03-24T11:30:35.691Z,49.04
2018-03-24T11:31:35.786Z,48.28
2018-03-24T11:32:35.882Z,47.42
2018-03-24T11:33:35.981Z,47.03
2018-03-24T11:34:36.082Z,47.99
2018-03-24T11:35:36.180Z,47.99
2018-03-24T11:36:36.271Z,47.13
2018-03-24T11:37:36.361Z,46.47
2018-03-24T11:38:36.461Z,46.48
2018-03-24T11:39:36.554Z,45.82
2018-03-24T11:40:36.655Z,44.48
2018-03-24T11:41:36.749Z,44.67
2018-03-24T11:42:36.850Z,45.43
2018-03-24T11:43:36.946Z,46.20
2018-03-24T11:44:37.047Z,47.34
2018-03-24T11:45:37.140Z,47.82
2018-03-24T11:46:37.241Z,46.68
2018-03-24T11:47:37.340Z,46.20
2018-03-24T11:48:37.445Z,46.39
2018-03-24T11:49:37.564Z,47.03
2018-03-24T11:50:37.717Z,47.92
2018-03-24T11:51:37.761Z,48.02
2018-03-24T11:52:37.865Z,46.94
2018-03-24T11:53:37.965Z,47.16
2018-03-24T11:54:38.063Z,47.03
2018-03-24T11:55:38.164Z,47.61
2018-03-24T11:56:38.268Z,46.75
2018-03-24T11:57:38.367Z,46.27
2018-03-24T11:58:38.464Z,45.70
2018-03-24T11:59:38.559Z,45.32
2018-03-24T12:00:38.654Z,45.42
2018-03-24T12:01:38.754Z,45.51
2018-03-24T12:02:38.841Z,45.61
2018-03-24T12:03:39.007Z,45.79
2018-03-24T12:04:39.040Z,45.79
2018-03-24T12:05:39.134Z,45.22
2018-03-24T12:06:39.235Z,45.61
2018-03-24T12:07:39.336Z,45.13
2018-03-24T12:08:39.434Z,44.37
2018-03-24T12:09:39.533Z,44.37
2018-03-24T12:10:39.622Z,44.38
2018-03-24T12:11:39.720Z,44.48
2018-03-24T12:12:39.816Z,44.38
2018-03-24T12:13:39.911Z,43.53
2018-03-24T12:14:40.012Z,43.24
2018-03-24T12:15:40.107Z,43.24
2018-03-24T12:16:40.219Z,43.05
2018-03-24T12:17:40.321Z,43.33
2018-03-24T12:18:40.412Z,42.77
2018-03-24T12:19:40.509Z,42.96
2018-03-24T12:20:40.601Z,42.97
2018-03-24T12:21:40.701Z,42.69
2018-03-24T12:22:40.800Z,42.21
2018-03-24T12:23:40.905Z,43.55
2018-03-24T12:24:41.003Z,43.17
2018-03-24T12:25:41.096Z,42.02
2018-03-24T12:26:41.192Z,42.11
2018-03-24T12:27:41.297Z,42.97
2018-03-24T12:28:41.388Z,43.00
2018-03-24T12:29:41.487Z,41.75
2018-03-24T12:30:41.594Z,41.74
2018-03-24T12:31:41.677Z,40.61
2018-03-24T12:32:41.775Z,40.78
2018-03-24T12:33:41.878Z,40.59
2018-03-24T12:34:41.968Z,40.49
2018-03-24T12:35:42.069Z,40.13
2018-03-24T12:36:42.167Z,39.44
2018-03-24T12:37:42.263Z,39.83
2018-03-24T12:38:42.350Z,39.73
2018-03-24T12:39:42.446Z,41.26
2018-03-24T12:40:42.542Z,41.52
2018-03-24T12:41:42.639Z,41.81
2018-03-24T12:42:42.734Z,40.76
2018-03-24T12:43:42.835Z,41.71
2018-03-24T12:44:42.932Z,43.22
2018-03-24T12:45:43.027Z,43.79
2018-03-24T12:46:43.125Z,43.60
2018-03-24T12:47:43.213Z,43.13
2018-03-24T12:48:43.314Z,42.48
2018-03-24T12:49:43.412Z,42.00
2018-03-24T12:50:43.509Z,41.81
2018-03-24T12:51:43.606Z,42.48
2018-03-24T12:52:43.702Z,44.58
2018-03-24T12:53:43.797Z,44.48
2018-03-24T12:54:43.895Z,42.46
2018-03-24T12:55:43.999Z,41.88
2018-03-24T12:56:44.088Z,41.81